Terminal Aerodrome Forecast
Issued by NWS

Home | Current Version | Previous Version | Text Only | Print | Product List | Glossary On
Versions: 1 2 3 4 5 6 7 8 9 10 11 12 13 14 15 16 17
000
FTPA31 PHFO 222329
TAFHTO
TAF
PHTO 222329Z 2300/2324 05008KT P6SM VCSH SCT025 BKN045
     FM230300 VRB05KT P6SM VCSH SCT025 BKN045
     FM230600 23005KT P6SM VCSH SCT025 BKN045
     FM232000 02007KT P6SM VCSH SCT025 BKN045=

USA.gov is the U.S. government's official web portal to all federal, state and local government web resources and services.